createdAt,value
2022-09-28T00:01:12.802Z,82.91
2022-09-28T00:06:19.873Z,83.35
2022-09-28T00:11:28.393Z,84.03
2022-09-28T00:16:38.324Z,84.16
2022-09-28T00:21:41.951Z,84.71
2022-09-28T00:26:56.448Z,84.77
2022-09-28T00:32:03.110Z,85.32
2022-09-28T00:37:08.932Z,85.52
2022-09-28T00:42:19.043Z,85.67
2022-09-28T00:47:33.118Z,86.06
2022-09-28T00:52:41.391Z,85.95
2022-09-28T00:57:53.176Z,86.13
2022-09-28T01:02:56.340Z,86.62
2022-09-28T01:07:58.992Z,86.71
2022-09-28T01:13:01.734Z,86.56
2022-09-28T01:18:17.744Z,86.77
2022-09-28T01:23:58.316Z,86.42
2022-09-28T01:29:42.077Z,86.09
2022-09-28T01:35:20.018Z,85.76
2022-09-28T01:40:26.085Z,85.51
2022-09-28T01:45:57.881Z,85.23
2022-09-28T01:51:05.337Z,84.74
2022-09-28T01:56:16.961Z,84.78
2022-09-28T02:01:43.759Z,85.13
2022-09-28T02:06:56.836Z,85.81
2022-09-28T02:12:05.771Z,85.77
2022-09-28T02:17:10.276Z,85.69
2022-09-28T02:22:23.568Z,85.78
2022-09-28T02:27:36.473Z,86.34
2022-09-28T02:32:45.179Z,85.96
2022-09-28T02:37:49.860Z,86.59
2022-09-28T02:43:22.369Z,86.60
2022-09-28T02:48:41.553Z,86.62
2022-09-28T02:54:01.534Z,86.51
2022-09-28T02:59:20.425Z,87.18
2022-09-28T03:04:35.799Z,87.64
2022-09-28T03:10:01.898Z,87.43
2022-09-28T03:15:12.930Z,87.18
2022-09-28T03:20:15.941Z,87.42
2022-09-28T03:25:18.782Z,87.61
2022-09-28T03:30:22.561Z,88.03
2022-09-28T03:35:25.324Z,88.29
2022-09-28T03:40:28.010Z,88.71
2022-09-28T03:45:30.721Z,88.83
2022-09-28T03:50:33.441Z,89.18
2022-09-28T03:55:36.135Z,89.15
2022-09-28T04:00:39.185Z,89.22
2022-09-28T04:05:52.330Z,89.19
2022-09-28T04:10:59.204Z,89.54
2022-09-28T04:16:02.408Z,89.49
2022-09-28T04:21:07.835Z,89.53
2022-09-28T04:26:18.151Z,89.42
2022-09-28T04:31:23.786Z,89.85
2022-09-28T04:36:26.486Z,89.80
2022-09-28T04:41:29.691Z,90.05
2022-09-28T04:46:32.345Z,89.95
2022-09-28T04:51:35.033Z,89.76
2022-09-28T04:56:37.708Z,89.51
2022-09-28T05:01:40.513Z,89.32
2022-09-28T05:06:43.224Z,89.32
2022-09-28T05:11:45.935Z,89.53
2022-09-28T05:16:54.967Z,90.27
2022-09-28T05:22:04.111Z,90.69
2022-09-28T05:27:06.884Z,90.51
2022-09-28T05:32:09.797Z,90.40
2022-09-28T05:37:12.478Z,89.89
2022-09-28T05:42:15.183Z,89.39
2022-09-28T05:47:17.864Z,89.09
2022-09-28T05:52:20.558Z,89.43
2022-09-28T05:57:23.251Z,89.24
2022-09-28T06:02:26.381Z,89.10
2022-09-28T06:07:29.099Z,88.74
2022-09-28T06:12:34.142Z,88.57
2022-09-28T06:17:46.255Z,88.47
2022-09-28T06:23:01.015Z,87.93
2022-09-28T06:34:30.560Z,87.96
2022-09-28T06:39:51.255Z,87.65
2022-09-28T06:45:02.307Z,87.19
2022-09-28T06:56:02.537Z,86.62
2022-09-28T07:01:20.233Z,86.59
2022-09-28T07:06:24.419Z,86.38
2022-09-28T07:11:30.555Z,86.02
2022-09-28T07:16:58.429Z,86.70
2022-09-28T07:22:05.203Z,86.51
2022-09-28T07:27:11.821Z,85.65
2022-09-28T07:32:18.648Z,85.75
2022-09-28T07:37:31.999Z,85.53
2022-09-28T07:42:42.192Z,85.93
2022-09-28T07:47:56.561Z,85.50
2022-09-28T07:53:03.961Z,85.37
2022-09-28T07:58:07.943Z,85.17
2022-09-28T08:03:10.777Z,85.88
2022-09-28T08:08:18.864Z,86.53
2022-09-28T08:13:26.186Z,86.67
2022-09-28T08:18:43.926Z,87.15
2022-09-28T08:23:54.647Z,87.48
2022-09-28T08:28:59.430Z,88.00
2022-09-28T08:34:03.142Z,88.11
2022-09-28T08:39:11.375Z,88.74
2022-09-28T08:44:25.305Z,88.82
2022-09-28T08:49:48.440Z,88.21
2022-09-28T08:55:11.298Z,87.95
2022-09-28T09:00:49.307Z,87.52
2022-09-28T09:06:38.690Z,86.37
2022-09-28T09:11:57.721Z,87.04
2022-09-28T09:17:41.653Z,86.49
2022-09-28T09:23:00.481Z,85.44
2022-09-28T09:28:09.084Z,85.40
2022-09-28T09:33:52.638Z,85.52
2022-09-28T09:39:07.413Z,84.72
2022-09-28T09:44:33.776Z,84.66
2022-09-28T09:50:06.814Z,83.04
2022-09-28T09:55:29.658Z,82.17
2022-09-28T10:00:42.927Z,81.55
2022-09-28T10:05:54.693Z,79.30
2022-09-28T10:11:25.945Z,79.40
2022-09-28T10:16:33.085Z,78.52
2022-09-28T10:21:41.152Z,78.37
2022-09-28T10:26:50.383Z,78.33
2022-09-28T10:31:56.075Z,77.98
2022-09-28T10:37:06.758Z,76.42
2022-09-28T10:42:12.487Z,73.73
2022-09-28T10:47:19.799Z,75.07
2022-09-28T10:52:42.222Z,74.70
2022-09-28T10:57:44.959Z,73.51
2022-09-28T11:03:21.577Z,74.09
2022-09-28T11:08:40.100Z,68.32
2022-09-28T11:14:07.099Z,65.25
2022-09-28T11:19:22.897Z,62.71
2022-09-28T11:24:34.777Z,63.99
2022-09-28T11:29:46.576Z,66.97
2022-09-28T11:35:00.157Z,68.63
2022-09-28T11:40:29.697Z,69.99
2022-09-28T11:45:43.969Z,70.60
2022-09-28T11:50:54.540Z,65.70
2022-09-28T11:56:11.903Z,55.67
2022-09-28T12:01:31.697Z,45.25
2022-09-28T12:07:21.698Z,40.34
2022-09-28T12:12:49.363Z,35.34
2022-09-28T12:18:01.431Z,36.56
2022-09-28T12:23:11.468Z,38.95
2022-09-28T12:28:28.428Z,41.00
2022-09-28T12:33:32.829Z,43.55
2022-09-28T12:39:14.782Z,46.52
2022-09-28T12:44:20.186Z,48.90
2022-09-28T12:55:13.047Z,53.30
2022-09-28T13:00:32.621Z,53.94
2022-09-28T13:06:14.778Z,54.84
2022-09-28T13:11:47.351Z,55.94
2022-09-28T13:16:56.163Z,56.83
2022-09-28T13:22:21.760Z,57.41
2022-09-28T13:27:36.302Z,57.49
2022-09-28T13:32:39.910Z,57.40
2022-09-28T13:37:43.290Z,56.95
2022-09-28T13:42:46.244Z,57.60
2022-09-28T13:47:54.561Z,58.24
2022-09-28T13:53:22.204Z,58.77
2022-09-28T13:58:42.670Z,57.38
2022-09-28T14:04:11.789Z,58.58
2022-09-28T14:09:17.008Z,58.37
2022-09-28T14:14:54.365Z,58.74
2022-09-28T14:20:15.328Z,58.79
2022-09-28T14:25:25.103Z,58.55
2022-09-28T14:30:43.750Z,59.34
2022-09-28T14:36:04.858Z,59.16
2022-09-28T14:41:17.885Z,58.68
2022-09-28T14:46:21.003Z,58.70
2022-09-28T14:51:26.460Z,58.55
2022-09-28T14:56:33.313Z,58.26
2022-09-28T15:01:36.534Z,58.62
2022-09-28T15:06:50.154Z,58.39
2022-09-28T15:11:55.582Z,56.75
2022-09-28T15:17:02.972Z,51.82
2022-09-28T15:22:17.522Z,48.37
2022-09-28T15:27:20.257Z,48.64
2022-09-28T15:32:28.611Z,48.67
2022-09-28T15:37:40.314Z,50.23
2022-09-28T15:42:45.385Z,51.63
2022-09-28T15:47:48.571Z,53.08
2022-09-28T15:52:55.197Z,55.62
2022-09-28T15:58:21.226Z,56.98
2022-09-28T16:03:28.208Z,58.42
2022-09-28T16:08:33.073Z,59.55
2022-09-28T16:13:37.023Z,60.87
2022-09-28T16:18:40.502Z,62.05
2022-09-28T16:23:55.907Z,62.54
2022-09-28T16:28:59.067Z,62.90
2022-09-28T16:34:27.438Z,63.75
2022-09-28T16:39:30.126Z,64.50
2022-09-28T16:44:35.015Z,65.21
2022-09-28T16:49:39.906Z,65.93
2022-09-28T16:55:01.279Z,66.90
2022-09-28T17:00:04.272Z,67.40
2022-09-28T17:05:07.501Z,67.63
2022-09-28T17:11:12.905Z,67.88
2022-09-28T17:21:43.746Z,69.01
2022-09-28T17:26:49.259Z,69.31
2022-09-28T17:31:52.161Z,69.79
2022-09-28T17:36:56.098Z,70.34
2022-09-28T17:41:58.811Z,70.53
2022-09-28T17:47:02.111Z,70.87
2022-09-28T17:52:05.705Z,71.16
2022-09-28T17:57:10.342Z,71.35
2022-09-28T18:02:12.990Z,71.06
2022-09-28T18:07:15.893Z,71.27
2022-09-28T18:12:18.610Z,71.45
2022-09-28T18:17:22.226Z,71.80
2022-09-28T18:22:24.900Z,72.46
2022-09-28T18:27:30.390Z,72.67
2022-09-28T18:32:37.763Z,72.94
2022-09-28T18:37:40.941Z,73.18
2022-09-28T18:42:43.805Z,73.25
2022-09-28T18:47:47.037Z,72.91
2022-09-28T18:52:49.745Z,73.18
2022-09-28T18:57:52.950Z,73.30
2022-09-28T19:02:55.743Z,73.66
2022-09-28T19:07:58.463Z,73.93
2022-09-28T19:13:01.226Z,74.09
2022-09-28T19:18:04.387Z,74.22
2022-09-28T19:23:07.176Z,74.39
2022-09-28T19:28:09.864Z,74.66
2022-09-28T19:33:12.636Z,74.51
2022-09-28T19:38:15.311Z,74.97
2022-09-28T19:43:19.937Z,75.01
2022-09-28T19:48:27.301Z,75.24
2022-09-28T19:53:32.618Z,74.98
2022-09-28T19:58:36.851Z,75.52
2022-09-28T20:03:39.646Z,76.20
2022-09-28T20:08:44.790Z,76.51
2022-09-28T20:13:49.167Z,76.90
2022-09-28T20:18:56.062Z,77.16
2022-09-28T20:23:59.088Z,78.43
2022-09-28T20:29:01.811Z,78.92
2022-09-28T20:34:06.254Z,79.53
2022-09-28T20:39:10.781Z,80.13
2022-09-28T20:44:13.465Z,80.83
2022-09-28T20:49:16.126Z,80.88
2022-09-28T20:54:21.821Z,81.05
2022-09-28T20:59:27.086Z,81.33
2022-09-28T21:04:29.752Z,81.38
2022-09-28T21:09:32.570Z,81.01
2022-09-28T21:14:35.247Z,81.09
2022-09-28T21:19:37.921Z,81.48
2022-09-28T21:24:40.567Z,82.08
2022-09-28T21:29:43.238Z,81.83
2022-09-28T21:34:45.942Z,81.72
2022-09-28T21:39:48.602Z,81.96
2022-09-28T21:44:51.272Z,82.17
2022-09-28T21:49:53.912Z,82.02
2022-09-28T21:54:56.619Z,81.99
2022-09-28T21:59:59.307Z,81.51
2022-09-28T22:05:01.996Z,81.60
2022-09-28T22:10:07.070Z,81.94
2022-09-28T22:15:10.350Z,82.03
2022-09-28T22:20:13.523Z,81.49
2022-09-28T22:25:16.731Z,81.86
2022-09-28T22:30:19.410Z,81.85
2022-09-28T22:35:22.083Z,82.15
2022-09-28T22:40:25.537Z,82.48
2022-09-28T22:45:28.419Z,82.28
2022-09-28T22:50:31.665Z,82.58
2022-09-28T22:55:34.331Z,83.08
2022-09-28T23:00:37.459Z,83.06
2022-09-28T23:05:40.141Z,82.99
2022-09-28T23:10:42.834Z,83.23
2022-09-28T23:16:00.114Z,83.35
2022-09-28T23:21:06.068Z,83.43
2022-09-28T23:26:17.837Z,83.42
2022-09-28T23:31:23.892Z,83.76
2022-09-28T23:36:27.562Z,83.68
2022-09-28T23:41:30.499Z,83.36
2022-09-28T23:46:34.217Z,83.40
2022-09-28T23:51:36.910Z,83.63
2022-09-28T23:56:39.577Z,83.72
